createdAt,value
2018-02-21T00:01:24.549Z,29.30
2018-02-21T00:03:52.691Z,30.40
2018-02-21T00:06:20.848Z,33.70
2018-02-21T00:08:49.127Z,32.33
2018-02-21T00:11:17.107Z,32.20
2018-02-21T00:13:45.169Z,30.10
2018-02-21T00:16:14.267Z,31.80
2018-02-21T00:18:42.568Z,31.35
2018-02-21T00:21:11.967Z,32.38
2018-02-21T00:23:41.447Z,32.22
2018-02-21T00:26:09.987Z,31.80
2018-02-21T00:28:38.829Z,30.80
2018-02-21T00:31:07.811Z,31.65
2018-02-21T00:33:36.187Z,30.00
2018-02-21T00:36:04.667Z,31.10
2018-02-21T00:38:33.127Z,30.67
2018-02-21T00:41:01.307Z,32.03
2018-02-21T00:43:29.807Z,32.85
2018-02-21T00:45:58.247Z,29.92
2018-02-21T00:48:26.547Z,33.03
2018-02-21T00:50:54.707Z,32.30
2018-02-21T00:53:23.007Z,32.13
2018-02-21T00:55:51.067Z,33.35
2018-02-21T00:58:19.350Z,31.58
2018-02-21T01:00:47.627Z,30.40
2018-02-21T01:03:15.686Z,32.75
2018-02-21T01:05:43.947Z,30.00
2018-02-21T01:08:12.247Z,30.67
2018-02-21T01:10:40.286Z,29.37
2018-02-21T01:13:08.447Z,29.40
2018-02-21T01:15:36.627Z,29.85
2018-02-21T01:18:04.928Z,29.45
2018-02-21T01:20:33.107Z,30.55
2018-02-21T01:23:01.506Z,31.37
2018-02-21T01:25:30.688Z,28.92
2018-02-21T01:27:59.589Z,32.50
2018-02-21T01:30:28.566Z,32.28
2018-02-21T01:32:56.747Z,30.60
2018-02-21T01:35:24.907Z,29.35
2018-02-21T01:37:54.007Z,30.33
2018-02-21T01:40:22.469Z,33.08
2018-02-21T01:42:51.187Z,27.58
2018-02-21T01:45:20.050Z,32.45
2018-02-21T01:47:48.427Z,30.05
2018-02-21T01:50:16.887Z,30.17
2018-02-21T01:52:45.147Z,30.52
2018-02-21T01:55:13.547Z,30.80
2018-02-21T01:57:42.067Z,29.83
2018-02-21T02:00:11.247Z,29.12
2018-02-21T02:02:39.607Z,29.42
2018-02-21T02:05:07.687Z,29.70
2018-02-21T02:07:36.067Z,29.45
2018-02-21T02:10:04.247Z,28.45
2018-02-21T02:12:33.147Z,28.65
2018-02-21T02:15:02.186Z,29.25
2018-02-21T02:17:30.407Z,28.87
2018-02-21T02:19:58.566Z,29.58
2018-02-21T02:22:26.726Z,30.30
2018-02-21T02:24:55.227Z,27.90
2018-02-21T02:27:23.427Z,27.62
2018-02-21T02:29:52.366Z,29.70
2018-02-21T02:32:20.487Z,29.98
2018-02-21T02:34:49.366Z,28.30
2018-02-21T02:37:17.727Z,29.12
2018-02-21T02:40:02.706Z,29.23
2018-02-21T02:42:30.768Z,27.65
2018-02-21T02:44:58.938Z,30.30
2018-02-21T02:47:27.326Z,29.35
2018-02-21T02:49:55.389Z,30.55
2018-02-21T02:52:24.486Z,30.80
2018-02-21T02:54:52.648Z,30.65
2018-02-21T02:57:20.646Z,28.02
2018-02-21T02:59:49.947Z,30.95
2018-02-21T03:02:19.226Z,29.80
2018-02-21T03:04:47.828Z,28.67
2018-02-21T03:07:16.907Z,31.55
2018-02-21T03:09:46.086Z,30.48
2018-02-21T03:12:14.627Z,27.70
2018-02-21T03:14:43.066Z,28.10
2018-02-21T03:17:11.307Z,30.27
2018-02-21T03:19:39.527Z,29.73
2018-02-21T03:22:08.507Z,27.80
2018-02-21T03:24:36.866Z,27.20
2018-02-21T03:27:05.268Z,25.75
2018-02-21T03:29:34.350Z,24.50
2018-02-21T03:32:03.326Z,24.63
2018-02-21T03:34:32.027Z,28.20
2018-02-21T03:37:00.186Z,26.55
2018-02-21T03:39:28.586Z,25.83
2018-02-21T03:41:57.667Z,25.08
2018-02-21T03:44:25.747Z,24.27
2018-02-21T03:46:53.787Z,23.58
2018-02-21T03:49:22.089Z,23.45
2018-02-21T03:51:50.227Z,23.70
2018-02-21T03:54:18.206Z,25.23
2018-02-21T03:56:46.406Z,25.02
2018-02-21T03:59:14.486Z,23.45
2018-02-21T04:01:43.566Z,25.37
2018-02-21T04:04:11.727Z,24.05
2018-02-21T04:06:39.906Z,23.08
2018-02-21T04:09:08.067Z,23.05
2018-02-21T04:11:36.146Z,23.70
2018-02-21T04:14:04.427Z,22.87
2018-02-21T04:16:33.427Z,22.95
2018-02-21T04:19:01.687Z,22.90
2018-02-21T04:21:30.088Z,23.48
2018-02-21T04:23:59.047Z,23.62
2018-02-21T04:26:27.426Z,23.45
2018-02-21T04:28:55.707Z,23.23
2018-02-21T04:31:24.187Z,23.60
2018-02-21T04:33:52.527Z,21.62
2018-02-21T04:36:20.786Z,24.00
2018-02-21T04:38:49.006Z,21.85
2018-02-21T04:41:17.307Z,24.60
2018-02-21T04:43:45.686Z,22.37
2018-02-21T04:46:14.889Z,23.85
2018-02-21T04:48:44.186Z,21.98
2018-02-21T04:51:13.247Z,21.17
2018-02-21T04:53:41.446Z,22.77
2018-02-21T04:56:29.487Z,24.05
2018-02-21T04:58:58.567Z,22.98
2018-02-21T05:01:26.846Z,23.23
2018-02-21T05:03:55.118Z,23.45
2018-02-21T05:06:23.526Z,23.62
2018-02-21T05:08:52.708Z,10.68
2018-02-21T05:11:20.807Z,23.77
2018-02-21T05:13:49.047Z,21.73
2018-02-21T05:16:17.427Z,21.40
2018-02-21T05:18:45.586Z,25.00
2018-02-21T05:21:13.867Z,22.70
2018-02-21T05:23:41.907Z,24.27
2018-02-21T05:26:10.207Z,25.33
2018-02-21T05:28:38.367Z,26.87
2018-02-21T05:31:06.667Z,25.02
2018-02-21T05:33:34.947Z,26.55
2018-02-21T05:36:03.007Z,27.65
2018-02-21T05:38:31.286Z,27.90
2018-02-21T05:40:59.446Z,21.58
2018-02-21T05:43:27.648Z,25.05
2018-02-21T05:45:56.998Z,25.80
2018-02-21T05:48:25.307Z,24.35
2018-02-21T05:50:53.787Z,27.50
2018-02-21T05:53:22.346Z,28.87
2018-02-21T05:55:50.867Z,29.75
2018-02-21T05:58:19.827Z,30.62
2018-02-21T06:00:48.449Z,30.88
2018-02-21T06:03:17.566Z,29.90
2018-02-21T06:05:46.007Z,29.40
2018-02-21T06:08:14.267Z,31.98
2018-02-21T06:10:42.347Z,32.65
2018-02-21T06:13:10.547Z,28.48
2018-02-21T06:15:38.806Z,27.30
2018-02-21T06:18:06.947Z,30.70
2018-02-21T06:20:35.267Z,30.80
2018-02-21T06:23:04.407Z,28.83
2018-02-21T06:25:32.586Z,30.55
2018-02-21T06:28:00.967Z,29.20
2018-02-21T06:30:29.046Z,18.62
2018-02-21T06:32:57.326Z,27.87
2018-02-21T06:35:25.751Z,27.85
2018-02-21T06:37:53.887Z,27.08
2018-02-21T06:40:22.267Z,29.63
2018-02-21T06:42:50.548Z,26.50
2018-02-21T06:45:19.526Z,28.20
2018-02-21T06:47:47.706Z,26.05
2018-02-21T06:50:16.907Z,21.65
2018-02-21T06:52:45.187Z,26.20
2018-02-21T06:55:14.306Z,27.37
2018-02-21T06:57:42.546Z,26.02
2018-02-21T07:00:10.829Z,25.85
2018-02-21T07:02:39.087Z,24.25
2018-02-21T07:05:07.266Z,24.87
2018-02-21T07:07:35.767Z,26.30
2018-02-21T07:10:05.169Z,24.65
2018-02-21T07:12:34.487Z,25.77
2018-02-21T07:15:02.866Z,25.08
2018-02-21T07:17:31.227Z,22.37
2018-02-21T07:20:00.508Z,24.60
2018-02-21T07:22:30.728Z,24.90
2018-02-21T07:24:58.966Z,25.27
2018-02-21T07:27:27.488Z,23.62
2018-02-21T07:29:56.586Z,24.25
2018-02-21T07:32:25.887Z,25.08
2018-02-21T07:34:54.847Z,23.08
2018-02-21T07:37:22.986Z,23.70
2018-02-21T07:39:51.208Z,20.92
2018-02-21T07:42:19.487Z,23.58
2018-02-21T07:44:47.666Z,18.73
2018-02-21T07:47:16.028Z,29.60
2018-02-21T07:49:44.207Z,23.25
2018-02-21T07:52:12.567Z,24.77
2018-02-21T07:54:40.850Z,18.00
2018-02-21T07:57:09.335Z,23.75
2018-02-21T07:59:37.615Z,23.65
2018-02-21T08:02:05.784Z,22.37
2018-02-21T08:04:35.094Z,23.83
2018-02-21T08:07:03.334Z,22.48
2018-02-21T08:09:31.834Z,23.90
2018-02-21T08:12:00.253Z,21.35
2018-02-21T08:14:29.354Z,25.65
2018-02-21T08:16:57.694Z,23.52
2018-02-21T08:19:26.792Z,23.62
2018-02-21T08:21:55.186Z,25.08
2018-02-21T08:24:24.283Z,28.95
2018-02-21T08:26:53.516Z,24.20
2018-02-21T08:29:22.057Z,15.38
2018-02-21T08:31:51.058Z,23.62
2018-02-21T08:34:19.916Z,26.40
2018-02-21T08:36:48.236Z,25.30
2018-02-21T08:39:16.538Z,27.10
2018-02-21T08:41:44.962Z,24.70
2018-02-21T08:44:13.217Z,23.95
2018-02-21T08:46:41.297Z,24.77
2018-02-21T08:49:09.681Z,23.02
2018-02-21T08:51:38.816Z,24.58
2018-02-21T08:54:06.956Z,19.65
2018-02-21T08:56:35.457Z,19.83
2018-02-21T08:59:04.616Z,18.45
2018-02-21T09:01:32.736Z,18.48
2018-02-21T09:04:01.007Z,19.77
2018-02-21T09:06:29.277Z,19.05
2018-02-21T09:08:57.478Z,16.37
2018-02-21T09:11:25.617Z,18.00
2018-02-21T09:13:54.677Z,15.40
2018-02-21T09:16:22.778Z,10.88
2018-02-21T09:18:52.005Z,16.83
2018-02-21T09:21:20.136Z,18.15
2018-02-21T09:23:49.185Z,17.20
2018-02-21T09:26:17.508Z,17.30
2018-02-21T09:28:46.795Z,15.75
2018-02-21T09:31:15.076Z,17.23
2018-02-21T09:33:43.566Z,16.60
2018-02-21T09:36:12.966Z,16.27
2018-02-21T09:38:42.186Z,15.38
2018-02-21T09:41:10.324Z,13.60
2018-02-21T09:43:38.603Z,13.65
2018-02-21T09:46:07.166Z,16.50
2018-02-21T09:48:35.567Z,13.35
2018-02-21T09:51:03.745Z,14.27
2018-02-21T09:53:32.807Z,16.42
2018-02-21T09:56:00.992Z,12.57
2018-02-21T09:58:29.433Z,14.32
2018-02-21T10:00:57.709Z,15.82
2018-02-21T10:03:26.136Z,15.88
2018-02-21T10:05:54.337Z,15.80
2018-02-21T10:08:22.578Z,14.50
2018-02-21T10:10:51.037Z,14.10
2018-02-21T10:13:19.818Z,14.13
2018-02-21T10:15:48.237Z,17.33
2018-02-21T10:18:16.597Z,11.65
2018-02-21T10:20:44.738Z,14.40
2018-02-21T10:23:13.017Z,16.00
2018-02-21T10:25:41.157Z,14.82
2018-02-21T10:28:09.697Z,15.20
2018-02-21T10:30:37.883Z,15.77
2018-02-21T10:33:06.045Z,14.55
2018-02-21T10:35:34.317Z,8.80
2018-02-21T10:38:02.600Z,13.50
2018-02-21T10:40:30.997Z,14.30
2018-02-21T10:42:59.878Z,15.30
2018-02-21T10:45:28.857Z,15.38
2018-02-21T10:47:57.161Z,13.45
2018-02-21T10:50:26.237Z,14.52
2018-02-21T10:52:54.797Z,13.93
2018-02-21T10:55:23.197Z,14.05
2018-02-21T10:57:51.518Z,15.30
2018-02-21T11:00:25.437Z,17.08
2018-02-21T11:02:54.597Z,15.18
2018-02-21T11:05:23.637Z,13.00
2018-02-21T11:07:52.857Z,14.57
2018-02-21T11:10:21.338Z,13.38
2018-02-21T11:12:49.836Z,11.55
2018-02-21T11:15:18.057Z,13.15
2018-02-21T11:17:46.355Z,14.40
2018-02-21T11:20:14.715Z,8.15
2018-02-21T11:22:42.914Z,14.15
2018-02-21T11:25:11.055Z,12.80
2018-02-21T11:27:39.297Z,14.00
2018-02-21T11:30:08.375Z,13.95
2018-02-21T11:32:37.455Z,12.68
2018-02-21T11:35:05.635Z,14.35
2018-02-21T11:37:33.976Z,13.40
2018-02-21T11:40:02.095Z,10.27
2018-02-21T11:42:31.354Z,12.50
2018-02-21T11:44:59.558Z,11.45
2018-02-21T11:47:27.615Z,9.30
2018-02-21T11:49:56.015Z,14.52
2018-02-21T11:52:25.115Z,15.25
2018-02-21T11:54:54.415Z,14.87
2018-02-21T11:57:23.496Z,14.80
2018-02-21T11:59:51.815Z,14.20
2018-02-21T12:02:19.887Z,12.60
2018-02-21T12:04:48.175Z,11.35
2018-02-21T12:07:16.391Z,14.63
2018-02-21T12:09:44.779Z,12.98
2018-02-21T12:12:13.751Z,12.20
2018-02-21T12:14:42.151Z,13.00
2018-02-21T12:17:11.132Z,14.70
2018-02-21T12:19:40.310Z,14.43
2018-02-21T12:22:08.591Z,15.15
2018-02-21T12:24:36.672Z,12.20
2018-02-21T12:27:04.851Z,15.38
2018-02-21T12:29:33.831Z,16.95
2018-02-21T12:32:02.851Z,17.50
2018-02-21T12:34:31.732Z,16.65
2018-02-21T12:37:00.830Z,17.77
2018-02-21T12:39:35.962Z,18.87
2018-02-21T12:42:05.133Z,18.45
2018-02-21T12:44:33.778Z,17.23
2018-02-21T12:47:02.392Z,12.88
2018-02-21T12:49:30.672Z,18.35
2018-02-21T12:51:58.853Z,19.48
2018-02-21T12:54:26.933Z,17.45
2018-02-21T12:56:55.931Z,16.05
2018-02-21T12:59:24.503Z,18.25
2018-02-21T13:01:52.776Z,18.70
2018-02-21T13:04:21.056Z,16.35
2018-02-21T13:06:49.211Z,20.23
2018-02-21T13:09:17.430Z,18.77
2018-02-21T13:11:46.975Z,20.23
2018-02-21T13:14:15.364Z,19.73
2018-02-21T13:16:43.559Z,15.75
2018-02-21T13:19:11.838Z,21.90
2018-02-21T13:21:40.819Z,22.52
2018-02-21T13:24:09.225Z,19.92
2018-02-21T13:26:38.363Z,22.33
2018-02-21T13:29:06.742Z,17.25
2018-02-21T13:31:34.944Z,19.98
2018-02-21T13:34:03.423Z,22.48
2018-02-21T13:36:31.803Z,15.57
2018-02-21T13:39:00.023Z,15.73
2018-02-21T13:41:29.247Z,16.77
2018-02-21T13:43:57.365Z,17.60
2018-02-21T13:46:25.623Z,15.02
2018-02-21T13:48:54.894Z,17.40
2018-02-21T13:51:23.037Z,15.52
2018-02-21T13:53:51.274Z,16.95
2018-02-21T13:56:19.335Z,13.73
2018-02-21T13:58:48.335Z,17.90
2018-02-21T14:01:16.514Z,18.87
2018-02-21T14:03:45.633Z,15.77
2018-02-21T14:06:14.094Z,19.40
2018-02-21T14:08:42.970Z,17.58
2018-02-21T14:11:11.831Z,18.77
2018-02-21T14:13:40.113Z,15.98
2018-02-21T14:16:08.523Z,16.55
2018-02-21T14:18:36.884Z,15.52
2018-02-21T14:21:05.583Z,20.58
2018-02-21T14:23:34.044Z,17.33
2018-02-21T14:26:02.322Z,18.85
2018-02-21T14:28:30.702Z,20.23
2018-02-21T14:30:59.904Z,13.40
2018-02-21T14:33:28.161Z,16.52
2018-02-21T14:35:57.243Z,15.18
2018-02-21T14:38:26.036Z,14.65
2018-02-21T14:40:54.556Z,17.83
2018-02-21T14:43:24.156Z,22.42
2018-02-21T14:45:52.436Z,16.27
2018-02-21T14:48:21.376Z,20.10
2018-02-21T14:50:49.570Z,18.02
2018-02-21T14:53:17.757Z,17.67
2018-02-21T14:55:46.237Z,18.90
2018-02-21T14:58:14.497Z,18.00
2018-02-21T15:00:42.835Z,17.87
2018-02-21T15:03:11.099Z,19.23
2018-02-21T15:05:40.379Z,19.67
2018-02-21T15:08:09.559Z,19.65
2018-02-21T15:10:37.949Z,19.60
2018-02-21T15:13:06.929Z,19.23
2018-02-21T15:15:35.450Z,19.30
2018-02-21T15:18:04.433Z,17.60
2018-02-21T15:20:33.809Z,18.27
2018-02-21T15:23:02.073Z,19.50
2018-02-21T15:25:30.253Z,15.07
2018-02-21T15:27:58.751Z,21.40
2018-02-21T15:30:27.825Z,19.62
2018-02-21T15:32:56.230Z,19.33
2018-02-21T15:35:25.242Z,20.33
2018-02-21T15:37:53.279Z,18.00
2018-02-21T15:40:22.159Z,23.12
2018-02-21T15:42:50.342Z,25.40
2018-02-21T15:45:19.103Z,21.62
2018-02-21T15:47:47.819Z,19.48
2018-02-21T15:50:17.208Z,24.42
2018-02-21T15:52:45.811Z,25.40
2018-02-21T15:55:14.572Z,30.33
2018-02-21T15:57:42.946Z,24.05
2018-02-21T16:00:11.435Z,27.30
2018-02-21T16:02:40.073Z,31.05
2018-02-21T16:05:08.413Z,29.67
2018-02-21T16:07:37.742Z,33.25
2018-02-21T16:10:05.987Z,24.02
2018-02-21T16:12:35.148Z,35.88
2018-02-21T16:15:04.571Z,21.58
2018-02-21T16:17:32.727Z,28.50
2018-02-21T16:20:00.957Z,33.28
2018-02-21T16:22:29.081Z,33.83
2018-02-21T16:24:57.400Z,29.87
2018-02-21T16:27:25.878Z,25.33
2018-02-21T16:29:54.149Z,31.35
2018-02-21T16:32:23.167Z,27.20
2018-02-21T16:34:51.918Z,32.00
2018-02-21T16:37:20.738Z,20.23
2018-02-21T16:39:49.278Z,30.90
2018-02-21T16:42:17.439Z,23.75
2018-02-21T16:44:45.637Z,33.30
2018-02-21T16:47:14.818Z,26.08
2018-02-21T16:49:43.197Z,29.85
2018-02-21T16:52:11.599Z,33.92
2018-02-21T16:54:41.185Z,19.00
2018-02-21T16:57:09.519Z,31.35
2018-02-21T16:59:37.859Z,31.48
2018-02-21T17:02:06.939Z,30.85
2018-02-21T17:04:36.606Z,32.92
2018-02-21T17:07:05.024Z,31.42
2018-02-21T17:09:34.097Z,34.17
2018-02-21T17:12:03.205Z,24.60
2018-02-21T17:14:31.480Z,29.12
2018-02-21T17:16:59.664Z,28.52
2018-02-21T17:19:28.863Z,29.10
2018-02-21T17:21:58.143Z,30.85
2018-02-21T17:24:26.523Z,27.55
2018-02-21T17:26:54.582Z,26.33
2018-02-21T17:29:23.003Z,29.45
2018-02-21T17:31:51.126Z,22.37
2018-02-21T17:34:19.269Z,28.52
2018-02-21T17:36:47.567Z,29.08
2018-02-21T17:39:15.767Z,28.10
2018-02-21T17:41:44.148Z,27.52
2018-02-21T17:44:13.147Z,31.42
2018-02-21T17:46:42.027Z,29.33
2018-02-21T17:49:10.287Z,33.35
2018-02-21T17:51:38.566Z,28.80
2018-02-21T17:54:06.887Z,29.98
2018-02-21T17:56:35.147Z,30.08
2018-02-21T17:59:04.105Z,27.58
2018-02-21T18:01:34.068Z,27.67
2018-02-21T18:04:03.316Z,29.50
2018-02-21T18:06:31.719Z,28.65
2018-02-21T18:09:00.915Z,26.27
2018-02-21T18:11:30.097Z,29.83
2018-02-21T18:13:58.616Z,23.05
2018-02-21T18:16:27.056Z,28.98
2018-02-21T18:18:55.336Z,30.55
2018-02-21T18:21:28.996Z,27.27
2018-02-21T18:23:57.615Z,29.05
2018-02-21T18:26:26.096Z,31.45
2018-02-21T18:28:55.297Z,28.17
2018-02-21T18:31:23.576Z,30.25
2018-02-21T18:33:51.856Z,22.05
2018-02-21T18:36:19.956Z,28.80
2018-02-21T18:38:48.195Z,26.90
2018-02-21T18:41:16.700Z,32.15
2018-02-21T18:43:45.576Z,21.62
2018-02-21T18:46:14.656Z,27.13
2018-02-21T18:48:42.897Z,32.53
2018-02-21T18:51:11.215Z,24.98
2018-02-21T18:53:39.235Z,28.27
2018-02-21T18:56:07.560Z,26.45
2018-02-21T18:58:35.836Z,29.35
2018-02-21T19:01:04.177Z,33.20
2018-02-21T19:03:32.695Z,29.90
2018-02-21T19:06:01.196Z,29.15
2018-02-21T19:08:30.396Z,29.63
2018-02-21T19:10:59.596Z,31.83
2018-02-21T19:13:28.057Z,28.40
2018-02-21T19:15:57.156Z,25.10
2018-02-21T19:18:26.337Z,31.08
2018-02-21T19:20:54.715Z,30.98
2018-02-21T19:23:22.979Z,31.80
2018-02-21T19:25:51.376Z,32.20
2018-02-21T19:28:19.617Z,35.28
2018-02-21T19:30:47.936Z,28.90
2018-02-21T19:33:17.378Z,27.40
2018-02-21T19:35:45.697Z,29.60
2018-02-21T19:38:14.177Z,29.35
2018-02-21T19:40:42.238Z,30.00
2018-02-21T19:43:10.336Z,23.45
2018-02-21T19:45:39.496Z,33.53
2018-02-21T19:48:07.796Z,29.98
2018-02-21T19:50:36.717Z,31.90
2018-02-21T19:53:05.158Z,28.38
2018-02-21T19:55:33.617Z,32.10
2018-02-21T19:58:01.917Z,32.80
2018-02-21T20:00:30.396Z,32.75
2018-02-21T20:02:58.675Z,30.77
2018-02-21T20:05:26.937Z,30.67
2018-02-21T20:07:55.218Z,29.83
2018-02-21T20:10:23.397Z,27.85
2018-02-21T20:12:51.557Z,27.55
2018-02-21T20:15:19.837Z,31.25
2018-02-21T20:17:48.360Z,30.80
2018-02-21T20:20:17.017Z,31.65
2018-02-21T20:22:46.257Z,28.35
2018-02-21T20:25:14.798Z,30.67
2018-02-21T20:27:43.977Z,31.33
2018-02-21T20:30:12.404Z,31.35
2018-02-21T20:32:40.816Z,26.52
2018-02-21T20:35:09.436Z,31.30
2018-02-21T20:37:38.717Z,33.53
2018-02-21T20:40:07.077Z,32.92
2018-02-21T20:42:35.517Z,31.33
2018-02-21T20:45:04.136Z,29.90
2018-02-21T20:47:32.536Z,30.20
2018-02-21T20:50:00.736Z,31.45
2018-02-21T20:52:29.820Z,31.00
2018-02-21T20:54:58.796Z,31.95
2018-02-21T20:57:27.338Z,30.58
2018-02-21T20:59:55.556Z,32.70
2018-02-21T21:02:24.036Z,36.75
2018-02-21T21:04:52.316Z,35.22
2018-02-21T21:07:20.416Z,29.05
2018-02-21T21:09:48.656Z,30.60
2018-02-21T21:12:16.736Z,33.33
2018-02-21T21:14:45.036Z,32.85
2018-02-21T21:17:13.276Z,32.50
2018-02-21T21:19:43.196Z,33.63
2018-02-21T21:22:11.536Z,31.60
2018-02-21T21:24:39.836Z,26.85
2018-02-21T21:27:08.216Z,31.15
2018-02-21T21:29:36.496Z,25.30
2018-02-21T21:32:05.197Z,31.12
2018-02-21T21:34:33.797Z,33.22
2018-02-21T21:37:02.038Z,29.73
2018-02-21T21:39:30.716Z,31.15
2018-02-21T21:41:59.116Z,29.00
2018-02-21T21:44:28.016Z,31.25
2018-02-21T21:46:57.396Z,30.50
2018-02-21T21:49:25.676Z,28.40
2018-02-21T21:51:53.856Z,30.30
2018-02-21T21:54:22.916Z,26.55
2018-02-21T21:56:51.298Z,31.27
2018-02-21T21:59:19.796Z,31.10
2018-02-21T22:01:47.957Z,29.63
2018-02-21T22:04:16.477Z,30.08
2018-02-21T22:06:45.756Z,29.80
2018-02-21T22:09:14.117Z,32.40
2018-02-21T22:11:42.276Z,31.98
2018-02-21T22:14:10.497Z,33.03
2018-02-21T22:16:39.457Z,34.80
2018-02-21T22:19:07.577Z,32.72
2018-02-21T22:21:36.217Z,33.40
2018-02-21T22:24:04.658Z,33.20
2018-02-21T22:26:32.976Z,34.78
2018-02-21T22:29:01.277Z,38.05
2018-02-21T22:31:29.416Z,29.73
2018-02-21T22:33:58.101Z,37.25
2018-02-21T22:36:26.416Z,37.17
2018-02-21T22:38:55.397Z,39.72
2018-02-21T22:41:23.757Z,37.30
2018-02-21T22:43:51.918Z,36.42
2018-02-21T22:46:21.836Z,33.03
2018-02-21T22:48:49.796Z,36.05
2018-02-21T22:51:18.397Z,32.88
2018-02-21T22:53:47.696Z,33.55
2018-02-21T22:56:16.137Z,30.10
2018-02-21T22:58:44.757Z,32.10
2018-02-21T23:01:13.176Z,30.60
2018-02-21T23:03:41.703Z,30.23
2018-02-21T23:06:10.257Z,28.33
2018-02-21T23:08:38.876Z,29.67
2018-02-21T23:11:07.196Z,33.40
2018-02-21T23:13:35.636Z,32.08
2018-02-21T23:16:03.996Z,30.60
2018-02-21T23:18:32.396Z,31.35
2018-02-21T23:21:01.476Z,29.50
2018-02-21T23:23:29.736Z,30.70
2018-02-21T23:25:57.776Z,29.25
2018-02-21T23:28:26.095Z,31.83
2018-02-21T23:30:54.377Z,30.37
2018-02-21T23:33:22.658Z,31.20
2018-02-21T23:35:51.036Z,26.83
2018-02-21T23:38:19.175Z,31.00
2018-02-21T23:40:47.377Z,29.83
2018-02-21T23:43:15.756Z,28.45
2018-02-21T23:45:43.916Z,28.00
2018-02-21T23:48:12.196Z,28.75
2018-02-21T23:50:40.476Z,28.42
2018-02-21T23:53:08.857Z,29.83
2018-02-21T23:55:37.016Z,25.62
2018-02-21T23:58:05.295Z,29.85
